Eltham, United Kingdom
Current Conditions -  °F | °C
As of 12:20 AM on Sunday 21 Dec 2014 (Local Time) from EGLC Reporting Station
Clear Clear  
Wind Chill: 37°   Ceiling: Unl
Heat Index: 43°   Visibility: 6mi
Dew Point: 37°   Wind: 10mph
Humidity: 81%   Direction: 240°WSW
Pressure: 30.45"   Gusts: NA
Location:  51.45°N, 0.06°E
Report Text: EGLC 210020Z AUTO 24009KT 9999 NCD 06/03 Q1031
Loading
Personal Weather Stations






























Interactive Weather Map New forecast layout! Learn more

10-Day Weather Forecast

Advertisements
Track Severe Weather on mobile